Terminal Aerodrome Forecast
Issued by NWS

Home | Current Version | Previous Version | Text Only | Print | Product List | Glossary On
Versions: 1 2 3 4 5 6 7 8 9 10 11 12 13 14 15 16 17 18
000
FTUS41 KPHI 171700
TAFPNE
TAF
KPNE 171731Z 1718/1818 VRB04KT P6SM BKN060
     FM180000 VRB03KT P6SM SCT060
     FM181100 VRB03KT P6SM FEW050
     FM181600 31004KT P6SM SCT050=

USA.gov is the U.S. government's official web portal to all federal, state and local government web resources and services.